createdAt,value
2022-11-21T00:01:53.517Z,36.67
2022-11-21T00:04:23.592Z,41.90
2022-11-21T00:06:53.693Z,38.42
2022-11-21T00:09:23.768Z,40.60
2022-11-21T00:11:53.782Z,44.97
2022-11-21T00:14:23.890Z,41.47
2022-11-21T00:16:57.350Z,41.22
2022-11-21T00:19:27.708Z,38.83
2022-11-21T00:21:57.759Z,35.33
2022-11-21T00:24:28.052Z,37.53
2022-11-21T00:26:58.303Z,39.92
2022-11-21T00:29:31.174Z,43.13
2022-11-21T00:32:01.491Z,38.08
2022-11-21T00:34:31.537Z,39.92
2022-11-21T00:37:01.563Z,39.13
2022-11-21T00:39:31.714Z,37.60
2022-11-21T00:42:01.755Z,38.03
2022-11-21T00:44:31.822Z,37.55
2022-11-21T00:47:01.925Z,35.03
2022-11-21T00:49:32.047Z,34.95
2022-11-21T00:52:02.428Z,36.15
2022-11-21T00:54:32.477Z,32.90
2022-11-21T00:57:02.711Z,35.58
2022-11-21T00:59:32.839Z,32.40
2022-11-21T01:02:02.947Z,37.38
2022-11-21T01:04:35.710Z,42.70
2022-11-21T01:07:05.763Z,39.20
2022-11-21T01:09:35.935Z,38.65
2022-11-21T01:12:07.136Z,35.00
2022-11-21T01:14:37.319Z,37.88
2022-11-21T01:17:07.421Z,40.83
2022-11-21T01:19:37.477Z,38.13
2022-11-21T01:22:07.560Z,37.88
2022-11-21T01:24:37.814Z,38.35
2022-11-21T01:27:07.858Z,36.55
2022-11-21T01:29:37.858Z,37.80
2022-11-21T01:32:08.277Z,38.03
2022-11-21T01:34:38.323Z,39.15
2022-11-21T01:37:08.456Z,39.45
2022-11-21T01:39:38.546Z,39.60
2022-11-21T01:42:14.648Z,42.80
2022-11-21T01:44:54.507Z,38.10
2022-11-21T01:47:24.620Z,32.47
2022-11-21T01:49:54.675Z,38.78
2022-11-21T01:52:34.132Z,36.72
2022-11-21T01:55:14.934Z,37.30
2022-11-21T01:57:49.779Z,39.33
2022-11-21T02:00:31.947Z,39.67
2022-11-21T02:03:14.040Z,38.90
2022-11-21T02:05:44.356Z,43.00
2022-11-21T02:08:21.376Z,35.85
2022-11-21T02:11:45.178Z,34.75
2022-11-21T02:14:16.118Z,42.08
2022-11-21T02:16:47.304Z,38.47
2022-11-21T02:20:10.570Z,40.45
2022-11-21T02:23:39.455Z,37.70
2022-11-21T02:26:11.443Z,38.47
2022-11-21T02:28:43.018Z,39.38
2022-11-21T02:31:13.041Z,38.40
2022-11-21T02:33:43.317Z,44.33
2022-11-21T02:36:47.560Z,44.28
2022-11-21T02:39:33.290Z,37.45
2022-11-21T02:42:17.062Z,40.40
2022-11-21T02:45:23.775Z,44.08
2022-11-21T02:48:02.275Z,38.15
2022-11-21T02:50:39.935Z,40.95
2022-11-21T02:53:18.280Z,40.33
2022-11-21T02:55:48.409Z,39.83
2022-11-21T02:58:15.909Z,45.42
2022-11-21T03:00:44.180Z,40.67
2022-11-21T03:03:16.984Z,42.15
2022-11-21T03:05:47.026Z,43.35
2022-11-21T03:08:17.126Z,40.20
2022-11-21T03:10:46.812Z,43.67
2022-11-21T03:13:16.564Z,43.70
2022-11-21T03:15:46.354Z,39.33
2022-11-21T03:18:16.133Z,46.60
2022-11-21T03:20:45.846Z,41.40
2022-11-21T03:23:15.566Z,42.03
2022-11-21T03:25:45.374Z,37.40
2022-11-21T03:28:15.119Z,46.25
2022-11-21T03:30:45.022Z,43.92
2022-11-21T03:33:14.681Z,41.20
2022-11-21T03:35:44.439Z,41.10
2022-11-21T03:38:17.651Z,42.83
2022-11-21T03:40:47.034Z,38.88
2022-11-21T03:43:16.863Z,39.10
2022-11-21T03:45:51.000Z,47.05
2022-11-21T03:48:18.077Z,39.67
2022-11-21T03:50:47.786Z,36.47
2022-11-21T03:53:17.521Z,46.17
2022-11-21T03:55:47.288Z,40.65
2022-11-21T03:58:16.989Z,43.58
2022-11-21T04:00:48.404Z,42.05
2022-11-21T04:03:18.120Z,43.00
2022-11-21T04:05:46.673Z,40.72
2022-11-21T04:08:17.505Z,41.13
2022-11-21T04:10:53.025Z,40.20
2022-11-21T04:13:22.289Z,43.92
2022-11-21T04:15:52.261Z,43.17
2022-11-21T04:18:20.320Z,31.08
2022-11-21T04:20:48.853Z,38.42
2022-11-21T04:23:17.206Z,42.72
2022-11-21T04:25:45.499Z,42.75
2022-11-21T04:28:15.105Z,40.80
2022-11-21T04:30:42.545Z,38.90
2022-11-21T04:33:14.931Z,34.65
2022-11-21T04:35:45.375Z,40.30
2022-11-21T04:38:15.626Z,40.47
2022-11-21T04:40:45.643Z,47.85
2022-11-21T04:43:15.781Z,42.85
2022-11-21T04:45:45.834Z,39.60
2022-11-21T04:48:15.381Z,40.78
2022-11-21T04:50:46.808Z,45.38
2022-11-21T04:53:16.530Z,36.97
2022-11-21T04:55:46.269Z,43.17
2022-11-21T04:58:15.990Z,41.63
2022-11-21T05:00:45.736Z,47.13
2022-11-21T05:03:15.918Z,45.55
2022-11-21T05:05:46.495Z,48.85
2022-11-21T05:08:15.758Z,42.97
2022-11-21T05:11:07.069Z,43.63
2022-11-21T05:13:37.095Z,42.17
2022-11-21T05:16:07.391Z,44.67
2022-11-21T05:18:37.445Z,44.08
2022-11-21T05:21:07.490Z,48.55
2022-11-21T05:23:37.562Z,47.63
2022-11-21T05:26:07.578Z,46.92
2022-11-21T05:28:37.656Z,36.80
2022-11-21T05:31:07.667Z,43.70
2022-11-21T05:33:37.683Z,36.45
2022-11-21T05:36:07.819Z,44.83
2022-11-21T05:38:37.827Z,40.40
2022-11-21T05:41:07.849Z,44.67
2022-11-21T05:43:46.937Z,38.10
2022-11-21T05:46:23.856Z,39.70
2022-11-21T05:48:54.777Z,36.28
2022-11-21T05:51:23.532Z,42.58
2022-11-21T05:53:53.303Z,45.83
2022-11-21T05:56:23.319Z,45.35
2022-11-21T05:58:57.155Z,45.22
2022-11-21T06:01:45.268Z,45.03
2022-11-21T06:04:15.120Z,44.50
2022-11-21T06:06:45.876Z,45.28
2022-11-21T06:09:14.657Z,39.08
2022-11-21T06:11:44.445Z,43.25
2022-11-21T06:14:14.030Z,40.95
2022-11-21T06:16:43.984Z,45.58
2022-11-21T06:19:13.598Z,42.33
2022-11-21T06:21:43.445Z,42.20
2022-11-21T06:24:16.010Z,44.60
2022-11-21T06:26:46.132Z,44.10
2022-11-21T06:29:16.922Z,43.90
2022-11-21T06:31:45.885Z,39.10
2022-11-21T06:34:14.516Z,52.45
2022-11-21T06:36:44.787Z,41.83
2022-11-21T06:39:14.806Z,46.15
2022-11-21T06:41:51.120Z,47.08
2022-11-21T06:44:21.427Z,45.72
2022-11-21T06:46:51.510Z,53.28
2022-11-21T06:49:22.340Z,49.97
2022-11-21T06:51:49.752Z,47.70
2022-11-21T06:54:18.216Z,57.90
2022-11-21T06:56:46.631Z,51.20
2022-11-21T06:59:15.032Z,45.45
2022-11-21T07:01:43.513Z,51.40
2022-11-21T07:04:12.687Z,51.20
2022-11-21T07:06:40.432Z,52.65
2022-11-21T07:09:32.217Z,48.47
2022-11-21T07:12:19.111Z,45.70
2022-11-21T07:14:49.276Z,50.72
2022-11-21T07:17:19.376Z,42.25
2022-11-21T07:19:49.433Z,49.90
2022-11-21T07:22:19.504Z,53.40
2022-11-21T07:24:49.610Z,50.22
2022-11-21T07:27:19.670Z,47.13
2022-11-21T07:29:49.837Z,49.20
2022-11-21T07:32:19.982Z,49.53
2022-11-21T07:34:50.032Z,47.58
2022-11-21T07:37:20.471Z,48.33
2022-11-21T07:39:50.538Z,51.97
2022-11-21T07:42:20.799Z,47.60
2022-11-21T07:44:50.844Z,50.67
2022-11-21T07:47:20.845Z,50.38
2022-11-21T07:49:50.910Z,51.10
2022-11-21T07:52:21.043Z,43.53
2022-11-21T07:54:51.301Z,51.38
2022-11-21T07:57:21.380Z,49.78
2022-11-21T07:59:51.504Z,49.03
2022-11-21T08:02:27.107Z,51.80
2022-11-21T08:04:57.113Z,46.25
2022-11-21T08:07:27.285Z,48.83
2022-11-21T08:09:57.495Z,52.03
2022-11-21T08:12:27.610Z,55.17
2022-11-21T08:14:58.187Z,50.75
2022-11-21T08:17:28.384Z,58.28
2022-11-21T08:20:00.345Z,59.75
2022-11-21T08:22:30.445Z,59.97
2022-11-21T08:25:00.472Z,57.20
2022-11-21T08:27:30.562Z,61.55
2022-11-21T08:30:00.608Z,62.55
2022-11-21T08:32:31.324Z,68.30
2022-11-21T08:35:02.025Z,66.75
2022-11-21T08:37:33.301Z,67.13
2022-11-21T08:40:03.695Z,66.53
2022-11-21T08:42:38.075Z,64.18
2022-11-21T08:45:09.151Z,65.38
2022-11-21T08:47:39.183Z,58.55
2022-11-21T08:50:09.634Z,56.08
2022-11-21T08:52:39.678Z,61.58
2022-11-21T08:55:09.809Z,51.67
2022-11-21T08:57:41.612Z,49.60
2022-11-21T09:00:13.830Z,52.17
2022-11-21T09:02:43.938Z,47.50
2022-11-21T09:05:14.098Z,48.63
2022-11-21T09:07:44.347Z,45.65
2022-11-21T09:10:15.220Z,49.75
2022-11-21T09:12:43.529Z,46.72
2022-11-21T09:15:30.643Z,52.10
2022-11-21T09:18:06.667Z,49.65
2022-11-21T09:20:44.991Z,50.38
2022-11-21T09:23:17.454Z,41.67
2022-11-21T09:25:47.028Z,44.42
2022-11-21T09:28:15.775Z,43.42
2022-11-21T09:30:44.298Z,50.22
2022-11-21T09:33:17.067Z,50.60
2022-11-21T09:35:48.060Z,50.28
2022-11-21T09:38:22.555Z,45.42
2022-11-21T09:41:40.424Z,36.38
2022-11-21T09:44:37.475Z,36.65
2022-11-21T09:47:40.875Z,46.90
2022-11-21T09:50:12.839Z,39.83
2022-11-21T09:53:11.518Z,41.92
2022-11-21T09:56:06.393Z,44.63
2022-11-21T09:58:51.296Z,42.53
2022-11-21T10:01:21.487Z,37.78
2022-11-21T10:03:52.757Z,37.58
2022-11-21T10:06:33.913Z,31.30
2022-11-21T10:09:51.656Z,35.83
2022-11-21T10:13:17.409Z,31.52
2022-11-21T10:17:08.613Z,43.08
2022-11-21T10:20:40.180Z,33.33
2022-11-21T10:23:24.734Z,38.60
2022-11-21T10:26:42.167Z,35.53
2022-11-21T10:29:11.998Z,34.80
2022-11-21T10:31:43.992Z,39.38
2022-11-21T10:34:38.479Z,36.35
2022-11-21T10:37:39.840Z,34.92
2022-11-21T10:40:45.946Z,32.65
2022-11-21T10:43:57.993Z,33.67
2022-11-21T10:46:28.036Z,35.50
2022-11-21T10:49:08.589Z,36.50
2022-11-21T10:52:12.850Z,28.17
2022-11-21T10:55:04.662Z,31.98
2022-11-21T10:57:52.759Z,32.00
2022-11-21T11:00:28.083Z,29.05
2022-11-21T11:03:07.277Z,33.72
2022-11-21T11:05:39.170Z,38.85
2022-11-21T11:08:15.315Z,34.97
2022-11-21T11:11:08.240Z,33.03
2022-11-21T11:14:02.007Z,31.20
2022-11-21T11:16:41.439Z,31.42
2022-11-21T11:19:14.647Z,33.70
2022-11-21T11:21:47.044Z,35.13
2022-11-21T11:24:17.534Z,40.63
2022-11-21T11:26:48.640Z,33.60
2022-11-21T11:29:25.925Z,35.17
2022-11-21T11:31:59.775Z,40.45
2022-11-21T11:35:03.151Z,36.60
2022-11-21T11:37:42.967Z,32.20
2022-11-21T11:40:44.085Z,37.97
2022-11-21T11:44:12.017Z,34.25
2022-11-21T11:47:18.548Z,31.52
2022-11-21T11:50:17.029Z,34.80
2022-11-21T11:53:01.572Z,35.28
2022-11-21T11:56:05.306Z,33.47
2022-11-21T11:59:13.085Z,37.67
2022-11-21T12:02:03.040Z,35.78
2022-11-21T12:05:15.247Z,28.50
2022-11-21T12:11:59.631Z,33.92
2022-11-21T12:16:01.732Z,38.20
2022-11-21T12:19:07.989Z,30.63
2022-11-21T12:21:38.142Z,31.75
2022-11-21T12:24:12.307Z,36.67
2022-11-21T12:27:16.623Z,28.27
2022-11-21T12:30:54.037Z,29.90
2022-11-21T12:33:24.928Z,24.25
2022-11-21T12:36:49.524Z,29.92
2022-11-21T12:39:53.436Z,30.80
2022-11-21T12:43:07.068Z,31.52
2022-11-21T12:46:02.530Z,29.15
2022-11-21T12:50:06.241Z,34.95
2022-11-21T12:53:49.695Z,33.45
2022-11-21T12:56:56.557Z,31.77
2022-11-21T12:59:30.820Z,32.80
2022-11-21T13:02:34.205Z,29.08
2022-11-21T13:05:24.846Z,30.60
2022-11-21T13:08:24.750Z,32.60
2022-11-21T13:12:00.209Z,30.45
2022-11-21T13:15:19.389Z,29.58
2022-11-21T13:18:24.370Z,27.40
2022-11-21T13:20:54.514Z,30.60
2022-11-21T13:23:43.015Z,35.88
2022-11-21T13:26:24.812Z,34.45
2022-11-21T13:29:16.543Z,37.28
2022-11-21T13:34:46.677Z,38.78
2022-11-21T13:38:02.924Z,26.13
2022-11-21T13:41:00.865Z,28.83
2022-11-21T13:43:34.184Z,30.50
2022-11-21T13:46:05.028Z,31.70
2022-11-21T13:49:20.967Z,27.35
2022-11-21T13:51:55.869Z,31.30
2022-11-21T13:54:40.660Z,24.88
2022-11-21T13:58:07.757Z,23.80
2022-11-21T14:00:56.297Z,28.52
2022-11-21T14:04:17.005Z,32.40
2022-11-21T14:06:45.807Z,33.45
2022-11-21T14:09:48.191Z,27.90
2022-11-21T14:12:44.523Z,28.35
2022-11-21T14:15:47.182Z,32.50
2022-11-21T14:18:26.790Z,34.83
2022-11-21T14:21:04.704Z,35.13
2022-11-21T14:23:43.123Z,39.88
2022-11-21T14:26:21.433Z,34.58
2022-11-21T14:28:52.740Z,32.70
2022-11-21T14:31:22.829Z,31.73
2022-11-21T14:33:58.439Z,36.83
2022-11-21T14:36:31.674Z,37.38
2022-11-21T14:42:16.345Z,36.78
2022-11-21T14:44:46.432Z,39.97
2022-11-21T14:47:26.571Z,34.33
2022-11-21T14:50:02.294Z,36.15
2022-11-21T14:52:34.562Z,34.22
2022-11-21T14:55:31.736Z,33.33
2022-11-21T14:58:06.329Z,34.28
2022-11-21T15:01:03.539Z,35.00
2022-11-21T15:03:24.390Z,34.25
2022-11-21T15:06:07.316Z,34.47
2022-11-21T15:12:03.608Z,34.92
2022-11-21T15:15:00.697Z,35.70
2022-11-21T15:17:32.314Z,31.70
2022-11-21T15:20:22.466Z,34.05
2022-11-21T15:22:58.986Z,31.08
2022-11-21T15:25:47.453Z,33.25
2022-11-21T15:28:19.108Z,30.45
2022-11-21T15:30:46.359Z,28.85
2022-11-21T15:33:19.159Z,34.03
2022-11-21T15:35:57.866Z,30.98
2022-11-21T15:38:47.161Z,32.97
2022-11-21T15:41:16.755Z,29.90
2022-11-21T15:43:55.213Z,29.70
2022-11-21T15:46:33.012Z,31.85
2022-11-21T15:49:31.537Z,32.80
2022-11-21T15:52:07.117Z,32.78
2022-11-21T15:54:39.032Z,33.05
2022-11-21T15:57:10.221Z,29.20
2022-11-21T15:59:40.264Z,32.88
2022-11-21T16:02:14.660Z,28.08
2022-11-21T16:04:44.167Z,36.40
2022-11-21T16:07:14.030Z,35.25
2022-11-21T16:09:45.984Z,35.55
2022-11-21T16:12:18.780Z,33.22
2022-11-21T16:14:48.857Z,30.25
2022-11-21T16:17:19.001Z,30.42
2022-11-21T16:19:49.570Z,33.63
2022-11-21T16:22:28.321Z,32.38
2022-11-21T16:24:58.371Z,28.45
2022-11-21T16:27:28.498Z,35.30
2022-11-21T16:29:58.509Z,35.72
2022-11-21T16:32:28.776Z,31.73
2022-11-21T16:34:59.262Z,34.10
2022-11-21T16:37:32.756Z,32.58
2022-11-21T16:40:00.749Z,36.10
2022-11-21T16:42:28.465Z,34.00
2022-11-21T16:44:55.953Z,33.70
2022-11-21T16:47:24.447Z,34.60
2022-11-21T16:49:52.995Z,39.47
2022-11-21T16:52:22.497Z,37.05
2022-11-21T16:54:50.829Z,41.72
2022-11-21T16:57:19.193Z,42.67
2022-11-21T16:59:47.804Z,37.80
2022-11-21T17:02:16.179Z,34.45
2022-11-21T17:04:44.573Z,38.63
2022-11-21T17:07:13.115Z,37.22
2022-11-21T17:09:41.414Z,40.55
2022-11-21T17:12:16.660Z,42.67
2022-11-21T17:14:45.404Z,47.10
2022-11-21T17:17:14.281Z,44.33
2022-11-21T17:19:44.568Z,44.03
2022-11-21T17:22:14.355Z,41.90
2022-11-21T17:24:42.097Z,40.28
2022-11-21T17:27:11.765Z,44.05
2022-11-21T17:29:41.608Z,43.97
2022-11-21T17:32:11.318Z,44.08
2022-11-21T17:34:41.522Z,45.53
2022-11-21T17:37:11.131Z,47.63
2022-11-21T17:39:41.369Z,44.95
2022-11-21T17:42:12.528Z,44.95
2022-11-21T17:44:42.219Z,48.97
2022-11-21T17:47:11.982Z,49.60
2022-11-21T17:49:41.845Z,51.03
2022-11-21T17:52:11.828Z,45.97
2022-11-21T17:54:39.376Z,54.22
2022-11-21T17:57:07.456Z,44.15
2022-11-21T17:59:38.890Z,50.80
2022-11-21T18:02:09.213Z,50.70
2022-11-21T18:04:39.176Z,49.85
2022-11-21T18:07:09.133Z,41.00
2022-11-21T18:09:38.863Z,50.47
2022-11-21T18:12:12.996Z,41.42
2022-11-21T18:14:43.868Z,46.53
2022-11-21T18:17:12.794Z,47.45
2022-11-21T18:19:42.639Z,46.58
2022-11-21T18:22:10.334Z,52.38
2022-11-21T18:24:40.164Z,49.53
2022-11-21T18:27:10.063Z,56.17
2022-11-21T18:29:39.867Z,52.17
2022-11-21T18:32:09.622Z,51.60
2022-11-21T18:34:39.334Z,51.75
2022-11-21T18:37:09.132Z,54.78
2022-11-21T18:39:39.017Z,52.70
2022-11-21T18:42:13.669Z,50.47
2022-11-21T18:44:43.174Z,52.90
2022-11-21T18:47:20.067Z,48.50
2022-11-21T18:49:48.889Z,46.03
2022-11-21T18:52:17.101Z,47.90
2022-11-21T18:54:47.033Z,45.65
2022-11-21T18:57:17.175Z,45.30
2022-11-21T18:59:47.118Z,41.30
2022-11-21T19:02:17.283Z,40.53
2022-11-21T19:04:47.087Z,36.05
2022-11-21T19:07:16.889Z,41.45
2022-11-21T19:09:46.704Z,48.33
2022-11-21T19:12:17.722Z,43.03
2022-11-21T19:14:50.254Z,41.38
2022-11-21T19:17:18.655Z,39.38
2022-11-21T19:19:48.581Z,40.10
2022-11-21T19:22:18.770Z,35.80
2022-11-21T19:24:48.620Z,40.33
2022-11-21T19:27:24.341Z,39.40
2022-11-21T19:29:55.345Z,41.60
2022-11-21T19:32:25.357Z,37.95
2022-11-21T19:34:55.202Z,33.13
2022-11-21T19:37:25.100Z,35.90
2022-11-21T19:39:54.804Z,42.03
2022-11-21T19:42:25.104Z,36.75
2022-11-21T19:44:54.953Z,30.90
2022-11-21T19:47:26.826Z,35.42
2022-11-21T19:49:56.862Z,35.28
2022-11-21T19:52:28.226Z,36.45
2022-11-21T19:54:58.383Z,35.00
2022-11-21T19:57:29.231Z,30.40
2022-11-21T19:59:59.260Z,34.78
2022-11-21T20:02:30.682Z,29.58
2022-11-21T20:05:01.078Z,26.27
2022-11-21T20:07:34.332Z,31.73
2022-11-21T20:10:10.100Z,34.65
2022-11-21T20:12:39.659Z,31.20
2022-11-21T20:15:10.301Z,33.85
2022-11-21T20:17:37.904Z,30.67
2022-11-21T20:20:07.949Z,34.60
2022-11-21T20:22:39.562Z,35.50
2022-11-21T20:25:08.278Z,34.90
2022-11-21T20:27:36.265Z,27.08
2022-11-21T20:30:05.763Z,32.35
2022-11-21T20:32:35.988Z,34.45
2022-11-21T20:35:06.075Z,34.08
2022-11-21T20:37:35.274Z,33.95
2022-11-21T20:40:06.077Z,31.13
2022-11-21T20:42:35.061Z,33.92
2022-11-21T20:47:53.918Z,36.17
2022-11-21T20:51:01.401Z,45.20
2022-11-21T20:56:07.494Z,34.45
2022-11-21T20:58:43.488Z,31.95
2022-11-21T21:01:19.242Z,35.42
2022-11-21T21:03:48.321Z,32.15
2022-11-21T21:06:17.689Z,32.53
2022-11-21T21:08:48.261Z,39.05
2022-11-21T21:14:13.024Z,42.03
2022-11-21T21:16:43.933Z,34.60
2022-11-21T21:19:12.596Z,30.27
2022-11-21T21:21:42.336Z,31.05
2022-11-21T21:24:13.939Z,35.60
2022-11-21T21:26:48.191Z,30.75
2022-11-21T21:29:21.483Z,32.45
2022-11-21T21:31:52.588Z,29.35
2022-11-21T21:34:23.861Z,29.63
2022-11-21T21:36:53.421Z,31.83
2022-11-21T21:39:21.779Z,31.63
2022-11-21T21:41:50.287Z,31.02
2022-11-21T21:44:19.845Z,29.88
2022-11-21T21:46:47.307Z,32.30
2022-11-21T21:49:16.043Z,26.33
2022-11-21T21:51:44.158Z,33.03
2022-11-21T21:54:21.926Z,36.47
2022-11-21T21:59:21.534Z,29.77
2022-11-21T22:01:51.740Z,27.20
2022-11-21T22:04:21.425Z,30.90
2022-11-21T22:06:51.193Z,29.05
2022-11-21T22:09:21.799Z,29.00
2022-11-21T22:11:51.238Z,31.90
2022-11-21T22:14:21.126Z,30.45
2022-11-21T22:16:52.100Z,31.40
2022-11-21T22:19:21.950Z,30.45
2022-11-21T22:21:51.993Z,29.25
2022-11-21T22:24:26.646Z,29.30
2022-11-21T22:26:55.213Z,33.25
2022-11-21T22:29:22.719Z,34.47
2022-11-21T22:31:52.713Z,31.17
2022-11-21T22:34:22.812Z,33.63
2022-11-21T22:36:51.950Z,34.75
2022-11-21T22:39:20.234Z,33.33
2022-11-21T22:41:48.810Z,30.55
2022-11-21T22:44:17.420Z,33.95
2022-11-21T22:46:46.700Z,35.55
2022-11-21T22:49:15.151Z,34.03
2022-11-21T22:51:45.057Z,34.72
2022-11-21T22:54:13.023Z,33.78
2022-11-21T22:56:41.091Z,35.13
2022-11-21T22:59:13.962Z,35.90
2022-11-21T23:01:41.989Z,33.42
2022-11-21T23:04:14.694Z,37.92
2022-11-21T23:06:47.585Z,37.97
2022-11-21T23:09:17.381Z,42.00
2022-11-21T23:11:47.261Z,36.00
2022-11-21T23:14:18.013Z,39.67
2022-11-21T23:16:46.831Z,43.67
2022-11-21T23:19:16.832Z,38.25
2022-11-21T23:21:49.050Z,39.08
2022-11-21T23:24:16.536Z,38.75
2022-11-21T23:26:45.934Z,38.33
2022-11-21T23:29:15.628Z,40.42
2022-11-21T23:31:45.382Z,36.90
2022-11-21T23:34:15.164Z,38.72
2022-11-21T23:36:43.705Z,40.05
2022-11-21T23:39:11.669Z,39.40
2022-11-21T23:41:40.969Z,39.45
2022-11-21T23:44:10.749Z,41.40
2022-11-21T23:46:40.569Z,36.63
2022-11-21T23:49:10.648Z,39.00
2022-11-21T23:51:40.229Z,34.55
2022-11-21T23:54:09.961Z,40.47
2022-11-21T23:56:39.581Z,45.70
2022-11-21T23:59:09.223Z,38.50
